sensor_id;sensor_type;location;lat;lon;timestamp;pressure;altitude;pressure_sealevel;temperature;humidity
13011;BME280;6786;57.632;11.962;2023-02-10T00:01:37;101276.47;;;18.69;38.59
13011;BME280;6786;57.632;11.962;2023-02-10T00:04:05;101301.56;;;18.68;38.54
13011;BME280;6786;57.632;11.962;2023-02-10T00:06:34;101289.16;;;18.67;38.64
13011;BME280;6786;57.632;11.962;2023-02-10T00:09:03;101302.44;;;18.68;38.56
13011;BME280;6786;57.632;11.962;2023-02-10T00:11:32;101313.97;;;18.69;38.63
13011;BME280;6786;57.632;11.962;2023-02-10T00:14:18;101305.22;;;18.67;38.59
13011;BME280;6786;57.632;11.962;2023-02-10T00:16:50;101298.88;;;18.57;38.62
13011;BME280;6786;57.632;11.962;2023-02-10T00:19:19;101327.47;;;18.67;38.51
13011;BME280;6786;57.632;11.962;2023-02-10T00:21:47;101283.00;;;18.43;38.58
13011;BME280;6786;57.632;11.962;2023-02-10T00:24:15;101326.66;;;18.67;38.63
13011;BME280;6786;57.632;11.962;2023-02-10T00:26:44;101332.84;;;18.67;38.57
13011;BME280;6786;57.632;11.962;2023-02-10T00:29:12;101339.06;;;18.68;38.60
13011;BME280;6786;57.632;11.962;2023-02-10T00:31:41;101332.00;;;18.67;38.46
13011;BME280;6786;57.632;11.962;2023-02-10T00:34:12;101344.41;;;18.68;38.51
13011;BME280;6786;57.632;11.962;2023-02-10T00:36:40;101330.31;;;18.66;38.49
13011;BME280;6786;57.632;11.962;2023-02-10T00:39:12;101337.34;;;18.67;38.55
13011;BME280;6786;57.632;11.962;2023-02-10T00:41:41;101156.72;;;17.57;38.63
13011;BME280;6786;57.632;11.962;2023-02-10T00:44:09;101342.94;;;18.64;38.58
13011;BME280;6786;57.632;11.962;2023-02-10T00:46:37;101346.38;;;18.66;38.53
13011;BME280;6786;57.632;11.962;2023-02-10T00:49:06;101353.41;;;18.67;38.51
13011;BME280;6786;57.632;11.962;2023-02-10T00:51:35;101357.09;;;18.66;38.43
13011;BME280;6786;57.632;11.962;2023-02-10T00:54:03;101373.16;;;18.66;38.41
13011;BME280;6786;57.632;11.962;2023-02-10T00:56:31;101373.16;;;18.66;38.43
13011;BME280;6786;57.632;11.962;2023-02-10T00:58:59;101376.78;;;18.65;38.64
13011;BME280;6786;57.632;11.962;2023-02-10T01:01:27;101382.13;;;18.65;38.38
13011;BME280;6786;57.632;11.962;2023-02-10T01:03:56;101269.47;;;17.99;38.49
13011;BME280;6786;57.632;11.962;2023-02-10T01:06:24;101387.25;;;18.68;38.50
13011;BME280;6786;57.632;11.962;2023-02-10T01:08:53;101387.25;;;18.68;38.47
13011;BME280;6786;57.632;11.962;2023-02-10T01:11:21;101392.59;;;18.68;38.40
13011;BME280;6786;57.632;11.962;2023-02-10T01:13:50;101406.00;;;18.68;38.36
13011;BME280;6786;57.632;11.962;2023-02-10T01:16:19;101403.31;;;18.68;38.34
13011;BME280;6786;57.632;11.962;2023-02-10T01:18:47;101408.78;;;18.66;38.31
13011;BME280;6786;57.632;11.962;2023-02-10T01:21:17;101223.44;;;17.59;38.42
13011;BME280;6786;57.632;11.962;2023-02-10T01:23:47;101400.03;;;18.64;38.46
13011;BME280;6786;57.632;11.962;2023-02-10T01:26:16;101415.97;;;18.66;38.48
13011;BME280;6786;57.632;11.962;2023-02-10T01:28:45;101405.28;;;18.66;38.43
13011;BME280;6786;57.632;11.962;2023-02-10T01:31:14;101399.91;;;18.66;38.42
13011;BME280;6786;57.632;11.962;2023-02-10T01:33:43;101406.09;;;18.66;38.38
13011;BME280;6786;57.632;11.962;2023-02-10T01:36:13;101415.97;;;18.66;38.25
13011;BME280;6786;57.632;11.962;2023-02-10T01:38:41;101430.31;;;18.65;38.36
13011;BME280;6786;57.632;11.962;2023-02-10T01:41:10;101350.25;;;18.15;38.38
13011;BME280;6786;57.632;11.962;2023-02-10T01:43:59;101438.25;;;18.66;38.20
13011;BME280;6786;57.632;11.962;2023-02-10T01:46:28;101442.75;;;18.66;38.21
13011;BME280;6786;57.632;11.962;2023-02-10T01:48:59;101451.75;;;18.65;38.35
13011;BME280;6786;57.632;11.962;2023-02-10T01:51:34;101446.38;;;18.65;38.30
13011;BME280;6786;57.632;11.962;2023-02-10T01:54:05;101448.13;;;18.66;38.41
13011;BME280;6786;57.632;11.962;2023-02-10T01:56:34;101451.97;;;18.62;38.23
13011;BME280;6786;57.632;11.962;2023-02-10T01:59:04;101465.13;;;18.65;38.21
13011;BME280;6786;57.632;11.962;2023-02-10T02:01:33;101466.09;;;18.64;38.20
13011;BME280;6786;57.632;11.962;2023-02-10T02:04:02;101476.81;;;18.64;38.25
13011;BME280;6786;57.632;11.962;2023-02-10T02:06:31;101440.06;;;18.42;38.31
13011;BME280;6786;57.632;11.962;2023-02-10T02:08:59;101476.81;;;18.64;38.24
13011;BME280;6786;57.632;11.962;2023-02-10T02:11:35;101460.75;;;18.64;38.27
13011;BME280;6786;57.632;11.962;2023-02-10T02:14:26;101462.44;;;18.65;38.17
13011;BME280;6786;57.632;11.962;2023-02-10T02:17:04;101463.44;;;18.64;38.06
13011;BME280;6786;57.632;11.962;2023-02-10T02:19:59;101456.50;;;18.61;38.12
13011;BME280;6786;57.632;11.962;2023-02-10T02:23:11;101466.09;;;18.64;37.99
13011;BME280;6786;57.632;11.962;2023-02-10T02:28:47;101464.41;;;18.63;38.17
13011;BME280;6786;57.632;11.962;2023-02-10T02:31:42;101465.34;;;18.62;37.99
13011;BME280;6786;57.632;11.962;2023-02-10T02:34:15;101479.72;;;18.61;38.19
13011;BME280;6786;57.632;11.962;2023-02-10T02:36:49;101476.19;;;18.60;38.18
13011;BME280;6786;57.632;11.962;2023-02-10T02:39:17;101484.09;;;18.62;38.17
13011;BME280;6786;57.632;11.962;2023-02-10T02:41:46;101478.97;;;18.59;38.14
13011;BME280;6786;57.632;11.962;2023-02-10T02:44:14;101477.03;;;18.61;38.17
13011;BME280;6786;57.632;11.962;2023-02-10T02:46:51;101489.44;;;18.62;38.16
13011;BME280;6786;57.632;11.962;2023-02-10T02:49:27;101497.47;;;18.62;38.11
13011;BME280;6786;57.632;11.962;2023-02-10T02:52:02;101494.81;;;18.62;38.04
13011;BME280;6786;57.632;11.962;2023-02-10T02:54:35;101496.53;;;18.63;38.11
13011;BME280;6786;57.632;11.962;2023-02-10T02:57:11;101502.84;;;18.62;38.19
13011;BME280;6786;57.632;11.962;2023-02-10T02:59:47;101505.50;;;18.62;38.04
13011;BME280;6786;57.632;11.962;2023-02-10T03:02:20;101491.19;;;18.63;38.14
13011;BME280;6786;57.632;11.962;2023-02-10T03:04:49;101500.16;;;18.62;38.00
13011;BME280;6786;57.632;11.962;2023-02-10T03:07:17;101493.09;;;18.61;38.10
13011;BME280;6786;57.632;11.962;2023-02-10T03:09:45;101503.69;;;18.62;38.12
13011;BME280;6786;57.632;11.962;2023-02-10T03:12:13;101507.25;;;18.63;38.18
13011;BME280;6786;57.632;11.962;2023-02-10T03:14:41;101512.59;;;18.63;37.94
13011;BME280;6786;57.632;11.962;2023-02-10T03:17:09;101494.00;;;18.49;38.03
13011;BME280;6786;57.632;11.962;2023-02-10T03:19:39;101516.22;;;18.62;38.03
13011;BME280;6786;57.632;11.962;2023-02-10T03:22:07;101507.25;;;18.63;37.93
13011;BME280;6786;57.632;11.962;2023-02-10T03:24:35;101502.72;;;18.63;37.96
13011;BME280;6786;57.632;11.962;2023-02-10T03:27:03;101498.16;;;18.53;37.93
13011;BME280;6786;57.632;11.962;2023-02-10T03:29:32;101507.47;;;18.60;38.00
13011;BME280;6786;57.632;11.962;2023-02-10T03:32:00;101510.66;;;18.65;37.93
13011;BME280;6786;57.632;11.962;2023-02-10T03:34:30;101514.31;;;18.64;37.99
13011;BME280;6786;57.632;11.962;2023-02-10T03:36:59;101525.00;;;18.64;37.89
13011;BME280;6786;57.632;11.962;2023-02-10T03:39:27;101505.28;;;18.65;37.91
13011;BME280;6786;57.632;11.962;2023-02-10T03:41:56;101508.94;;;18.64;38.00
13011;BME280;6786;57.632;11.962;2023-02-10T03:44:24;101514.31;;;18.64;37.88
13011;BME280;6786;57.632;11.962;2023-02-10T03:46:52;101507.25;;;18.63;37.91
13011;BME280;6786;57.632;11.962;2023-02-10T03:49:20;101525.00;;;18.64;37.86
13011;BME280;6786;57.632;11.962;2023-02-10T03:51:48;101532.06;;;18.65;37.92
13011;BME280;6786;57.632;11.962;2023-02-10T03:54:18;101525.00;;;18.64;37.89
13011;BME280;6786;57.632;11.962;2023-02-10T03:56:46;101527.69;;;18.64;37.84
13011;BME280;6786;57.632;11.962;2023-02-10T03:59:14;101515.16;;;18.64;37.85
13011;BME280;6786;57.632;11.962;2023-02-10T04:01:42;101510.88;;;18.62;37.91
13011;BME280;6786;57.632;11.962;2023-02-10T04:04:10;101519.66;;;18.64;37.96
13011;BME280;6786;57.632;11.962;2023-02-10T04:06:38;101516.00;;;18.65;37.75
13011;BME280;6786;57.632;11.962;2023-02-10T04:09:06;101524.91;;;18.65;37.85
13011;BME280;6786;57.632;11.962;2023-02-10T04:11:35;101532.06;;;18.65;37.83
13011;BME280;6786;57.632;11.962;2023-02-10T04:14:04;101543.00;;;18.62;37.95
13011;BME280;6786;57.632;11.962;2023-02-10T04:16:32;101541.94;;;18.64;37.90
13011;BME280;6786;57.632;11.962;2023-02-10T04:19:00;101546.44;;;18.64;37.89
13011;BME280;6786;57.632;11.962;2023-02-10T04:21:28;101555.44;;;18.63;37.75
13011;BME280;6786;57.632;11.962;2023-02-10T04:23:56;101557.38;;;18.61;37.89
13011;BME280;6786;57.632;11.962;2023-02-10T04:26:24;101554.47;;;18.64;37.91
13011;BME280;6786;57.632;11.962;2023-02-10T04:28:53;101567.84;;;18.64;37.81
13011;BME280;6786;57.632;11.962;2023-02-10T04:31:22;101568.06;;;18.61;37.79
13011;BME280;6786;57.632;11.962;2023-02-10T04:33:50;101568.81;;;18.63;37.89
13011;BME280;6786;57.632;11.962;2023-02-10T04:36:18;101583.91;;;18.64;37.77
13011;BME280;6786;57.632;11.962;2023-02-10T04:38:46;101585.63;;;18.65;37.73
13011;BME280;6786;57.632;11.962;2023-02-10T04:41:15;101582.22;;;18.63;37.69
13011;BME280;6786;57.632;11.962;2023-02-10T04:43:43;101591.94;;;18.64;37.73
13011;BME280;6786;57.632;11.962;2023-02-10T04:46:12;101599.00;;;18.65;37.78
13011;BME280;6786;57.632;11.962;2023-02-10T04:48:40;101607.03;;;18.65;37.76
13011;BME280;6786;57.632;11.962;2023-02-10T04:51:09;101596.03;;;18.57;37.73
13011;BME280;6786;57.632;11.962;2023-02-10T04:53:39;101601.69;;;18.65;37.64
13011;BME280;6786;57.632;11.962;2023-02-10T04:56:07;101605.34;;;18.64;37.69
13011;BME280;6786;57.632;11.962;2023-02-10T04:58:36;101585.03;;;18.49;37.73
13011;BME280;6786;57.632;11.962;2023-02-10T05:01:04;101605.34;;;18.64;37.60
13011;BME280;6786;57.632;11.962;2023-02-10T05:03:33;101607.25;;;18.62;37.66
13011;BME280;6786;57.632;11.962;2023-02-10T05:06:06;101609.81;;;18.63;37.83
13011;BME280;6786;57.632;11.962;2023-02-10T05:08:35;101592.31;;;18.47;37.62
13011;BME280;6786;57.632;11.962;2023-02-10T05:11:08;101619.69;;;18.63;37.62
13011;BME280;6786;57.632;11.962;2023-02-10T05:13:36;101619.69;;;18.63;37.63
13011;BME280;6786;57.632;11.962;2023-02-10T05:16:05;101610.69;;;18.64;37.60
13011;BME280;6786;57.632;11.962;2023-02-10T05:18:35;101605.56;;;18.61;37.71
13011;BME280;6786;57.632;11.962;2023-02-10T05:21:03;101611.56;;;18.64;37.59
13011;BME280;6786;57.632;11.962;2023-02-10T05:23:31;101593.16;;;18.60;37.62
13011;BME280;6786;57.632;11.962;2023-02-10T05:25:59;101604.47;;;18.63;37.54
13011;BME280;6786;57.632;11.962;2023-02-10T05:28:28;101610.69;;;18.64;37.69
13011;BME280;6786;57.632;11.962;2023-02-10T05:30:56;101624.09;;;18.64;37.55
13011;BME280;6786;57.632;11.962;2023-02-10T05:33:24;101636.59;;;18.63;37.51
13011;BME280;6786;57.632;11.962;2023-02-10T05:35:54;101641.13;;;18.63;37.62
13011;BME280;6786;57.632;11.962;2023-02-10T05:38:22;101641.13;;;18.63;37.46
13011;BME280;6786;57.632;11.962;2023-02-10T05:40:50;101643.81;;;18.63;37.54
13011;BME280;6786;57.632;11.962;2023-02-10T05:43:18;101646.47;;;18.63;37.64
13011;BME280;6786;57.632;11.962;2023-02-10T05:45:46;101641.13;;;18.63;37.53
13011;BME280;6786;57.632;11.962;2023-02-10T05:48:15;101653.53;;;18.64;37.60
13011;BME280;6786;57.632;11.962;2023-02-10T05:50:43;101649.16;;;18.63;37.52
13011;BME280;6786;57.632;11.962;2023-02-10T05:53:12;101653.53;;;18.64;37.57
13011;BME280;6786;57.632;11.962;2023-02-10T05:55:40;101664.25;;;18.64;37.65
13011;BME280;6786;57.632;11.962;2023-02-10T05:58:08;101662.53;;;18.63;37.43
13011;BME280;6786;57.632;11.962;2023-02-10T06:00:37;101669.59;;;18.64;37.54
13011;BME280;6786;57.632;11.962;2023-02-10T06:03:05;101664.25;;;18.64;37.47
13011;BME280;6786;57.632;11.962;2023-02-10T06:05:35;101648.41;;;18.61;37.50
13011;BME280;6786;57.632;11.962;2023-02-10T06:08:03;101659.88;;;18.63;37.57
13011;BME280;6786;57.632;11.962;2023-02-10T06:10:33;101660.81;;;18.62;37.43
13011;BME280;6786;57.632;11.962;2023-02-10T06:13:01;101662.97;;;18.57;37.41
13011;BME280;6786;57.632;11.962;2023-02-10T06:15:29;101679.56;;;18.62;37.43
13011;BME280;6786;57.632;11.962;2023-02-10T06:17:57;101678.59;;;18.63;37.52
13011;BME280;6786;57.632;11.962;2023-02-10T06:20:25;101683.97;;;18.63;37.57
13011;BME280;6786;57.632;11.962;2023-02-10T06:22:53;101680.41;;;18.62;37.42
13011;BME280;6786;57.632;11.962;2023-02-10T06:25:21;101678.81;;;18.60;37.37
13011;BME280;6786;57.632;11.962;2023-02-10T06:27:51;101683.97;;;18.63;37.42
13011;BME280;6786;57.632;11.962;2023-02-10T06:30:19;101675.94;;;18.63;37.44
13011;BME280;6786;57.632;11.962;2023-02-10T06:32:47;101672.38;;;18.62;37.43
13011;BME280;6786;57.632;11.962;2023-02-10T06:35:15;101696.38;;;18.64;37.46
13011;BME280;6786;57.632;11.962;2023-02-10T06:37:43;101696.38;;;18.64;37.45
13011;BME280;6786;57.632;11.962;2023-02-10T06:40:12;101701.72;;;18.64;37.47
13011;BME280;6786;57.632;11.962;2023-02-10T06:42:40;101709.00;;;18.62;37.47
13011;BME280;6786;57.632;11.962;2023-02-10T06:45:10;101710.75;;;18.63;37.31
13011;BME280;6786;57.632;11.962;2023-02-10T06:47:38;101714.34;;;18.62;37.43
13011;BME280;6786;57.632;11.962;2023-02-10T06:50:07;101710.75;;;18.63;37.42
13011;BME280;6786;57.632;11.962;2023-02-10T06:52:35;101716.09;;;18.63;37.42
13011;BME280;6786;57.632;11.962;2023-02-10T06:55:05;101716.09;;;18.63;37.46
13011;BME280;6786;57.632;11.962;2023-02-10T06:57:34;101698.94;;;18.53;37.40
13011;BME280;6786;57.632;11.962;2023-02-10T07:00:03;101717.16;;;18.60;37.29
13011;BME280;6786;57.632;11.962;2023-02-10T07:02:33;101724.13;;;18.63;37.43
13011;BME280;6786;57.632;11.962;2023-02-10T07:05:01;101722.81;;;18.56;37.36
13011;BME280;6786;57.632;11.962;2023-02-10T07:07:32;101742.88;;;18.63;37.34
13011;BME280;6786;57.632;11.962;2023-02-10T07:10:00;101742.88;;;18.63;37.29
13011;BME280;6786;57.632;11.962;2023-02-10T07:12:28;101744.56;;;18.64;37.36
13011;BME280;6786;57.632;11.962;2023-02-10T07:14:56;101746.16;;;18.66;37.44
13011;BME280;6786;57.632;11.962;2023-02-10T07:17:25;101744.16;;;18.70;37.55
13011;BME280;6786;57.632;11.962;2023-02-10T07:19:54;101745.84;;;18.71;37.56
13011;BME280;6786;57.632;11.962;2023-02-10T07:22:22;101753.78;;;18.72;37.60
13011;BME280;6786;57.632;11.962;2023-02-10T07:24:50;101705.06;;;18.42;37.71
13011;BME280;6786;57.632;11.962;2023-02-10T07:27:18;101752.69;;;18.75;37.74
13011;BME280;6786;57.632;11.962;2023-02-10T07:29:47;101749.06;;;18.76;37.76
13011;BME280;6786;57.632;11.962;2023-02-10T07:32:15;101746.50;;;18.74;37.74
13011;BME280;6786;57.632;11.962;2023-02-10T07:34:43;101756.13;;;18.77;37.70
13011;BME280;6786;57.632;11.962;2023-02-10T07:37:14;101752.59;;;18.76;37.73
13011;BME280;6786;57.632;11.962;2023-02-10T07:39:42;101761.28;;;18.80;37.75
13011;BME280;6786;57.632;11.962;2023-02-10T07:42:10;101764.72;;;18.82;37.80
13011;BME280;6786;57.632;11.962;2023-02-10T07:44:38;101771.75;;;18.83;37.96
13011;BME280;6786;57.632;11.962;2023-02-10T07:47:09;101774.34;;;18.84;38.10
13011;BME280;6786;57.632;11.962;2023-02-10T07:49:37;101738.56;;;18.60;37.91
13011;BME280;6786;57.632;11.962;2023-02-10T07:52:05;101776.16;;;18.84;37.95
13011;BME280;6786;57.632;11.962;2023-02-10T07:54:35;101782.47;;;18.83;37.80
13011;BME280;6786;57.632;11.962;2023-02-10T07:57:04;101782.47;;;18.83;37.67
13011;BME280;6786;57.632;11.962;2023-02-10T07:59:32;101786.13;;;18.82;37.71
13011;BME280;6786;57.632;11.962;2023-02-10T08:02:00;101794.16;;;18.82;37.61
13011;BME280;6786;57.632;11.962;2023-02-10T08:04:30;101786.13;;;18.82;37.65
13011;BME280;6786;57.632;11.962;2023-02-10T08:06:58;101791.59;;;18.80;37.53
13011;BME280;6786;57.632;11.962;2023-02-10T08:09:26;101795.13;;;18.81;37.48
13011;BME280;6786;57.632;11.962;2023-02-10T08:11:55;101789.75;;;18.81;37.49
13011;BME280;6786;57.632;11.962;2023-02-10T08:14:23;101786.13;;;18.82;37.61
13011;BME280;6786;57.632;11.962;2023-02-10T08:16:51;101780.78;;;18.82;37.75
13011;BME280;6786;57.632;11.962;2023-02-10T08:19:20;101784.19;;;18.84;37.86
13011;BME280;6786;57.632;11.962;2023-02-10T08:21:48;101786.84;;;18.84;37.82
13011;BME280;6786;57.632;11.962;2023-02-10T08:24:16;101777.34;;;18.80;37.94
13011;BME280;6786;57.632;11.962;2023-02-10T08:26:44;101742.88;;;18.63;37.72
13011;BME280;6786;57.632;11.962;2023-02-10T08:29:13;101782.25;;;18.86;37.86
13011;BME280;6786;57.632;11.962;2023-02-10T08:31:41;101794.69;;;18.87;37.84
13011;BME280;6786;57.632;11.962;2023-02-10T08:34:15;101803.69;;;18.86;38.01
13011;BME280;6786;57.632;11.962;2023-02-10T08:36:43;101823.22;;;18.88;37.79
13011;BME280;6786;57.632;11.962;2023-02-10T08:39:13;101830.25;;;18.89;37.82
13011;BME280;6786;57.632;11.962;2023-02-10T08:41:41;101797.69;;;18.70;37.79
13011;BME280;6786;57.632;11.962;2023-02-10T08:44:11;101838.19;;;18.90;37.97
13011;BME280;6786;57.632;11.962;2023-02-10T08:46:41;101833.72;;;18.91;37.80
13011;BME280;6786;57.632;11.962;2023-02-10T08:49:09;101837.31;;;18.90;37.91
13011;BME280;6786;57.632;11.962;2023-02-10T08:51:37;101839.06;;;18.91;37.79
13011;BME280;6786;57.632;11.962;2023-02-10T08:54:06;101831.97;;;18.90;37.88
13011;BME280;6786;57.632;11.962;2023-02-10T08:56:34;101839.06;;;18.91;37.82
13011;BME280;6786;57.632;11.962;2023-02-10T08:59:03;101777.69;;;18.63;37.80
13011;BME280;6786;57.632;11.962;2023-02-10T09:01:31;101754.34;;;18.52;37.79
13011;BME280;6786;57.632;11.962;2023-02-10T09:04:00;101824.69;;;18.92;37.84
13011;BME280;6786;57.632;11.962;2023-02-10T09:06:31;101780.66;;;18.71;37.77
13011;BME280;6786;57.632;11.962;2023-02-10T09:09:05;101809.50;;;18.92;37.91
13011;BME280;6786;57.632;11.962;2023-02-10T09:11:34;101817.63;;;18.91;37.89
13011;BME280;6786;57.632;11.962;2023-02-10T09:14:03;101810.53;;;18.90;38.00
13011;BME280;6786;57.632;11.962;2023-02-10T09:16:31;101809.50;;;18.92;37.86
13011;BME280;6786;57.632;11.962;2023-02-10T09:19:01;101799.41;;;18.96;38.01
13011;BME280;6786;57.632;11.962;2023-02-10T09:21:29;101799.41;;;18.96;37.97
13011;BME280;6786;57.632;11.962;2023-02-10T09:24:12;101799.41;;;18.96;38.00
13011;BME280;6786;57.632;11.962;2023-02-10T09:26:40;101803.03;;;18.95;37.90
13011;BME280;6786;57.632;11.962;2023-02-10T09:29:09;101803.03;;;18.95;37.94
13011;BME280;6786;57.632;11.962;2023-02-10T09:31:38;101801.34;;;18.94;37.87
13011;BME280;6786;57.632;11.962;2023-02-10T09:34:08;101770.72;;;18.73;37.88
13011;BME280;6786;57.632;11.962;2023-02-10T09:36:36;101817.41;;;18.94;37.97
13011;BME280;6786;57.632;11.962;2023-02-10T09:39:04;101811.19;;;18.93;37.97
13011;BME280;6786;57.632;11.962;2023-02-10T09:41:44;101816.56;;;18.93;37.90
13011;BME280;6786;57.632;11.962;2023-02-10T09:44:17;101817.41;;;18.94;38.04
13011;BME280;6786;57.632;11.962;2023-02-10T09:47:20;101828.13;;;18.94;37.88
13011;BME280;6786;57.632;11.962;2023-02-10T09:50:13;101828.25;;;18.92;37.86
13011;BME280;6786;57.632;11.962;2023-02-10T09:52:54;101829.84;;;18.95;37.93
13011;BME280;6786;57.632;11.962;2023-02-10T09:55:29;101831.75;;;18.93;37.82
13011;BME280;6786;57.632;11.962;2023-02-10T09:58:00;101840.56;;;18.95;37.92
13011;BME280;6786;57.632;11.962;2023-02-10T10:00:31;101845.91;;;18.95;37.86
13011;BME280;6786;57.632;11.962;2023-02-10T10:03:04;101846.78;;;18.95;37.92
13011;BME280;6786;57.632;11.962;2023-02-10T10:05:45;101845.91;;;18.95;37.92
13011;BME280;6786;57.632;11.962;2023-02-10T10:08:21;101836.91;;;18.96;37.96
13011;BME280;6786;57.632;11.962;2023-02-10T10:10:51;101833.91;;;18.88;38.00
13011;BME280;6786;57.632;11.962;2023-02-10T10:13:23;101849.34;;;18.97;37.96
13011;BME280;6786;57.632;11.962;2023-02-10T10:16:12;101839.56;;;18.96;38.00
13011;BME280;6786;57.632;11.962;2023-02-10T10:18:52;101837.78;;;18.96;37.88
13011;BME280;6786;57.632;11.962;2023-02-10T10:21:27;101841.41;;;18.95;37.90
13011;BME280;6786;57.632;11.962;2023-02-10T10:24:06;101841.41;;;18.95;37.95
13011;BME280;6786;57.632;11.962;2023-02-10T10:26:50;101794.81;;;18.73;37.81
13011;BME280;6786;57.632;11.962;2023-02-10T10:29:29;101834.22;;;18.96;37.88
13011;BME280;6786;57.632;11.962;2023-02-10T10:32:13;101841.41;;;18.95;38.01
13011;BME280;6786;57.632;11.962;2023-02-10T10:34:49;101833.50;;;18.94;38.04
13011;BME280;6786;57.632;11.962;2023-02-10T10:37:20;101802.84;;;18.73;37.99
13011;BME280;6786;57.632;11.962;2023-02-10T10:39:52;101847.63;;;18.96;37.88
13011;BME280;6786;57.632;11.962;2023-02-10T10:42:23;101852.97;;;18.96;37.96
13011;BME280;6786;57.632;11.962;2023-02-10T10:44:58;101852.03;;;18.97;37.98
13011;BME280;6786;57.632;11.962;2023-02-10T10:47:36;101849.34;;;18.97;37.94
13011;BME280;6786;57.632;11.962;2023-02-10T10:50:12;101851.06;;;18.98;38.01
13011;BME280;6786;57.632;11.962;2023-02-10T10:52:43;101849.34;;;18.97;37.98
13011;BME280;6786;57.632;11.962;2023-02-10T10:55:16;101843.13;;;18.96;37.98
13011;BME280;6786;57.632;11.962;2023-02-10T10:57:46;101843.13;;;18.96;38.03
13011;BME280;6786;57.632;11.962;2023-02-10T11:00:20;101843.13;;;18.96;38.06
13011;BME280;6786;57.632;11.962;2023-02-10T11:02:53;101836.91;;;18.96;37.94
13011;BME280;6786;57.632;11.962;2023-02-10T11:05:26;101830.81;;;18.94;37.95
13011;BME280;6786;57.632;11.962;2023-02-10T11:07:56;101839.56;;;18.96;37.94
13011;BME280;6786;57.632;11.962;2023-02-10T11:10:27;101840.56;;;18.95;37.96
13011;BME280;6786;57.632;11.962;2023-02-10T11:12:56;101826.41;;;18.93;37.78
13011;BME280;6786;57.632;11.962;2023-02-10T11:15:35;101824.69;;;18.92;37.90
13011;BME280;6786;57.632;11.962;2023-02-10T11:18:12;101817.63;;;18.91;37.96
13011;BME280;6786;57.632;11.962;2023-02-10T11:20:52;101810.53;;;18.90;37.81
13011;BME280;6786;57.632;11.962;2023-02-10T11:23:22;101814.19;;;18.89;37.79
13011;BME280;6786;57.632;11.962;2023-02-10T11:25:58;101763.00;;;18.68;37.82
13011;BME280;6786;57.632;11.962;2023-02-10T11:28:30;101792.97;;;18.86;37.81
13011;BME280;6786;57.632;11.962;2023-02-10T11:31:01;101789.53;;;18.84;37.87
13011;BME280;6786;57.632;11.962;2023-02-10T11:33:31;101784.19;;;18.84;37.79
13011;BME280;6786;57.632;11.962;2023-02-10T11:36:03;101787.84;;;18.83;37.77
13011;BME280;6786;57.632;11.962;2023-02-10T11:38:34;101720.16;;;18.43;37.82
13011;BME280;6786;57.632;11.962;2023-02-10T11:41:05;101795.13;;;18.81;37.84
13011;BME280;6786;57.632;11.962;2023-02-10T11:43:39;101782.47;;;18.83;37.75
13011;BME280;6786;57.632;11.962;2023-02-10T11:46:18;101788.72;;;18.83;37.83
13011;BME280;6786;57.632;11.962;2023-02-10T11:48:53;101781.59;;;18.82;37.80
13011;BME280;6786;57.632;11.962;2023-02-10T11:51:21;101796.84;;;18.82;37.88
13011;BME280;6786;57.632;11.962;2023-02-10T11:53:51;101751.63;;;18.65;37.80
13011;BME280;6786;57.632;11.962;2023-02-10T11:56:23;101784.41;;;18.81;37.88
13011;BME280;6786;57.632;11.962;2023-02-10T11:59:22;101782.69;;;18.80;37.96
13011;BME280;6786;57.632;11.962;2023-02-10T12:01:57;101777.34;;;18.80;37.88
13011;BME280;6786;57.632;11.962;2023-02-10T12:04:48;101785.47;;;18.78;37.96
13011;BME280;6786;57.632;11.962;2023-02-10T12:07:32;101781.94;;;18.78;37.94
13011;BME280;6786;57.632;11.962;2023-02-10T12:10:11;101777.78;;;18.74;37.92
13011;BME280;6786;57.632;11.962;2023-02-10T12:12:48;101783.13;;;18.74;38.00
13011;BME280;6786;57.632;11.962;2023-02-10T12:15:28;101783.88;;;18.76;38.00
13011;BME280;6786;57.632;11.962;2023-02-10T12:18:10;101782.16;;;18.75;38.02
13011;BME280;6786;57.632;11.962;2023-02-10T12:20:55;101781.22;;;18.76;37.95
13011;BME280;6786;57.632;11.962;2023-02-10T12:23:45;101767.06;;;18.74;37.85
13011;BME280;6786;57.632;11.962;2023-02-10T12:26:20;101767.06;;;18.74;37.94
13011;BME280;6786;57.632;11.962;2023-02-10T12:28:59;101751.75;;;18.76;38.13
13011;BME280;6786;57.632;11.962;2023-02-10T12:31:38;101741.66;;;18.79;38.07
13011;BME280;6786;57.632;11.962;2023-02-10T12:34:29;101748.63;;;18.82;38.41
13011;BME280;6786;57.632;11.962;2023-02-10T12:37:10;101750.34;;;18.83;38.35
13011;BME280;6786;57.632;11.962;2023-02-10T12:39:48;101748.41;;;18.85;38.27
13011;BME280;6786;57.632;11.962;2023-02-10T12:42:34;101759.13;;;18.85;38.42
13011;BME280;6786;57.632;11.962;2023-02-10T12:45:15;101748.41;;;18.85;38.26
13011;BME280;6786;57.632;11.962;2023-02-10T12:47:51;101746.47;;;18.87;38.24
13011;BME280;6786;57.632;11.962;2023-02-10T12:50:41;101757.94;;;18.89;38.44
13011;BME280;6786;57.632;11.962;2023-02-10T12:53:15;101745.53;;;18.88;38.38
13011;BME280;6786;57.632;11.962;2023-02-10T12:55:51;101728.47;;;18.89;38.48
13011;BME280;6786;57.632;11.962;2023-02-10T12:58:27;101664.69;;;18.58;38.46
13011;BME280;6786;57.632;11.962;2023-02-10T13:01:08;101715.84;;;18.91;38.67
13011;BME280;6786;57.632;11.962;2023-02-10T13:03:39;101715.84;;;18.91;38.54
13011;BME280;6786;57.632;11.962;2023-02-10T13:06:24;101692.66;;;18.90;38.50
13011;BME280;6786;57.632;11.962;2023-02-10T13:08:56;101687.09;;;18.93;38.49
13011;BME280;6786;57.632;11.962;2023-02-10T13:11:33;101683.47;;;18.94;38.52
13011;BME280;6786;57.632;11.962;2023-02-10T13:14:08;101677.13;;;18.95;38.47
13011;BME280;6786;57.632;11.962;2023-02-10T13:16:38;101690.53;;;18.95;38.49